Cuntis, Spain
Current Conditions -  °F | °C
As of 10:00 PM on Tuesday 27 Jan 2015 (Local Time) from LEST Reporting Station
Broken Clouds Broken Clouds  
Wind Chill: 43°   Ceiling: 2300
Heat Index: 46°   Visibility: 6mi
Dew Point: 43°   Wind: 7mph
Humidity: 87%   Direction: 10°N
Pressure: 30.48"   Gusts: NA
Location:  42.63°N, 8.56°W
Report Text: LEST 272100Z 01006KT 340V040 9999 FEW010 BKN023 08/06 Q1032 TEMPO BKN010
Loading
Personal Weather Stations






























Interactive Weather Map New forecast layout! Learn more

10-Day Weather Forecast

Advertisements
Track Severe Weather on mobile